Time;durP1;ratioP1;P1;durP2;ratioP2;P2;SDS_P1;SDS_P2;PMS_P1;PMS_P2;Temp;Humidity;BMP_temperature;BMP_pressure;BME280_temperature;BME280_humidity;BME280_pressure;Samples;Min_cycle;Max_cycle;Signal;HPM_P1;HPM_P2
2021/12/07 00:01:17;;;;;;;0.90;0.90;;;;;;;5.08;100.00;93801.56;5100173;28;20652;-69
2021/12/07 00:03:44;;;;;;;0.90;0.90;;;;;;;5.18;100.00;93796.25;5099946;28;20185;-69
2021/12/07 00:06:11;;;;;;;1.57;0.87;;;;;;;5.11;100.00;93795.63;5098154;28;20257;-69
2021/12/07 00:08:40;;;;;;;0.77;0.77;;;;;;;5.07;100.00;93804.97;5101191;28;20221;-68
2021/12/07 00:11:07;;;;;;;0.80;0.80;;;;;;;4.96;100.00;93811.19;5099376;28;20232;-68
2021/12/07 00:13:37;;;;;;;0.75;0.75;;;;;;;5.07;100.00;93804.97;5099018;28;20201;-69
2021/12/07 00:16:05;;;;;;;0.85;0.85;;;;;;;5.16;99.71;93806.38;5100803;28;20216;-68
2021/12/07 00:18:33;;;;;;;0.88;0.88;;;;;;;5.37;99.09;93804.81;5100924;28;20189;-68
2021/12/07 00:21:01;;;;;;;0.70;0.70;;;;;;;5.61;96.53;93810.72;5098916;27;20204;-68
2021/12/07 00:23:28;;;;;;;0.80;0.80;;;;;;;5.73;96.21;93800.22;5098581;28;20639;-69
2021/12/07 00:25:54;;;;;;;0.70;0.70;;;;;;;5.69;94.54;93798.69;5100864;28;20803;-69
2021/12/07 00:28:23;;;;;;;0.90;0.90;;;;;;;5.36;95.73;93800.66;5098814;28;20209;-68
2021/12/07 00:30:51;;;;;;;0.82;0.80;;;;;;;5.31;96.33;93802.50;5100447;28;20216;-69
2021/12/07 00:33:33;;;;;;;0.73;0.73;;;;;;;5.29;97.24;93806.78;5098392;28;20288;-68
2021/12/07 00:36:01;;;;;;;0.77;0.77;;;;;;;5.12;98.64;93812.38;5100336;28;20671;-69
2021/12/07 00:38:29;;;;;;;0.63;0.63;;;;;;;5.27;97.96;93816.91;5100124;28;20212;-69
2021/12/07 00:41:01;;;;;;;0.85;0.85;;;;;;;5.49;97.17;93817.00;5099094;28;20619;-69
2021/12/07 00:43:29;;;;;;;1.08;0.98;;;;;;;5.29;97.12;93814.31;5100007;28;20228;-69
2021/12/07 00:45:58;;;;;;;0.85;0.85;;;;;;;5.16;98.46;93818.97;5098267;28;20214;-69
2021/12/07 00:48:25;;;;;;;4.13;1.05;;;;;;;5.24;99.08;93811.97;5100483;28;20196;-69
2021/12/07 00:50:54;;;;;;;4.65;0.80;;;;;;;5.53;96.62;93817.72;5100111;28;20691;-69
2021/12/07 00:53:23;;;;;;;0.60;0.60;;;;;;;5.44;97.32;93817.16;5098364;28;21041;-68
2021/12/07 00:55:53;;;;;;;0.77;0.65;;;;;;;5.36;96.97;93820.81;5099677;28;20659;-69
2021/12/07 00:58:23;;;;;;;0.80;0.80;;;;;;;5.29;97.58;93819.38;5100129;28;20819;-68
2021/12/07 01:00:54;;;;;;;1.70;1.05;;;;;;;5.46;98.18;93817.09;5098564;28;20622;-68
2021/12/07 01:03:22;;;;;;;0.90;0.90;;;;;;;5.33;97.85;93818.41;5099979;28;20201;-69
2021/12/07 01:05:52;;;;;;;0.73;0.73;;;;;;;5.33;97.94;93815.88;5099952;28;20200;-69
2021/12/07 01:08:36;;;;;;;0.90;0.90;;;;;;;5.26;97.38;93807.69;5098786;28;20211;-69
2021/12/07 01:24:51;;;;;;;0.57;0.57;;;;;;;5.28;97.87;93808.47;5103795;28;20279;-68
2021/12/07 01:27:21;;;;;;;0.60;0.60;;;;;;;5.28;98.91;93808.47;5102429;28;20205;-67
2021/12/07 01:30:00;;;;;;;0.70;0.70;;;;;;;5.17;98.88;93802.97;5104034;28;20233;-67
2021/12/07 01:32:41;;;;;;;1.27;0.73;;;;;;;5.29;99.64;93795.00;5102341;28;20200;-67
2021/12/07 01:35:39;;;;;;;1.38;1.27;;;;;;;5.28;98.70;93803.44;5102088;28;20291;-67
2021/12/07 01:38:24;;;;;;;0.60;0.60;;;;;;;5.25;99.53;93801.00;5101879;28;20232;-68
2021/12/07 01:46:49;;;;;;;0.68;0.68;;;;;;;5.31;99.92;93790.75;5103248;28;20698;-68
2021/12/07 02:00:18;;;;;;;0.80;0.80;;;;;;;5.10;99.08;93779.69;5103148;28;20726;-67
2021/12/07 02:02:45;;;;;;;0.60;0.60;;;;;;;5.06;99.11;93777.31;5101699;28;20321;-68
2021/12/07 02:05:12;;;;;;;0.57;0.57;;;;;;;5.06;98.59;93777.31;5103203;28;20197;-68
2021/12/07 02:07:39;;;;;;;0.55;0.55;;;;;;;5.14;97.99;93772.88;5101748;27;20261;-68
2021/12/07 02:10:12;;;;;;;0.50;0.50;;;;;;;5.14;98.26;93760.28;5102847;27;20275;-68
2021/12/07 02:12:44;;;;;;;0.55;0.55;;;;;;;4.85;98.92;93758.72;5101049;27;20193;-68
2021/12/07 02:15:14;;;;;;;0.50;0.50;;;;;;;4.56;100.00;93749.56;5103333;27;20208;-68
2021/12/07 02:17:41;;;;;;;0.50;0.50;;;;;;;4.81;99.86;93747.09;5101723;27;20257;-68
2021/12/07 02:20:10;;;;;;;0.50;0.50;;;;;;;4.56;100.00;93767.19;5103002;27;20205;-68
2021/12/07 02:22:38;;;;;;;1.65;0.60;;;;;;;4.62;100.00;93761.13;5102791;28;20667;-68
2021/12/07 02:25:09;;;;;;;0.43;0.43;;;;;;;4.54;99.09;93758.03;5101046;28;20622;-68
2021/12/07 02:27:37;;;;;;;0.45;0.45;;;;;;;4.54;99.74;93763.06;5103181;27;20224;-68
2021/12/07 02:30:05;;;;;;;0.57;0.43;;;;;;;4.66;99.20;93750.94;5101712;28;21631;-68
2021/12/07 02:32:32;;;;;;;0.60;0.60;;;;;;;4.50;99.56;93746.41;5101392;28;20205;-68
2021/12/07 02:35:00;;;;;;;0.30;0.30;;;;;;;4.57;99.14;93747.88;5101211;28;20643;-67
2021/12/07 02:37:29;;;;;;;1.65;0.60;;;;;;;4.63;98.08;93742.66;5102354;28;20513;-68
2021/12/07 02:39:59;;;;;;;0.50;0.50;;;;;;;4.43;98.42;93730.72;5102319;28;20201;-68
2021/12/07 02:42:27;;;;;;;1.55;0.47;;;;;;;4.41;98.85;93738.31;5101055;28;20204;-68
2021/12/07 02:44:54;;;;;;;1.08;0.70;;;;;;;4.23;99.73;93743.06;5102361;28;20208;-68
2021/12/07 02:47:21;;;;;;;2.13;0.60;;;;;;;4.06;99.42;93739.38;5102746;28;20185;-68
2021/12/07 02:49:49;;;;;;;0.70;0.70;;;;;;;4.03;100.00;93744.47;5100940;28;20662;-68
2021/12/07 02:52:16;;;;;;;1.37;0.73;;;;;;;3.99;100.00;93754.66;5102065;28;20197;-67
2021/12/07 02:54:47;;;;;;;1.60;0.67;;;;;;;4.06;100.00;93749.41;5101140;28;20284;-67
2021/12/07 02:57:18;;;;;;;0.68;0.68;;;;;;;4.05;99.64;93742.75;5101984;28;20201;-69
2021/12/07 02:59:50;;;;;;;0.57;0.57;;;;;;;3.87;98.96;93745.81;5101938;28;20663;-68
2021/12/07 03:02:18;;;;;;;0.80;0.80;;;;;;;3.77;99.10;93759.47;5101788;28;20208;-68
2021/12/07 03:04:54;;;;;;;0.40;0.40;;;;;;;3.77;99.06;93746.91;5100520;28;20634;-67
2021/12/07 03:07:37;;;;;;;0.50;0.50;;;;;;;3.56;99.32;93760.09;5102056;28;20209;-68
2021/12/07 03:26:31;;;;;;;0.60;0.60;;;;;;;3.73;97.27;93738.66;5101478;28;21652;-69
2021/12/07 03:29:00;;;;;;;0.60;0.60;;;;;;;3.58;97.25;93740.78;5100590;28;20201;-68
2021/12/07 03:31:29;;;;;;;0.80;0.50;;;;;;;3.62;98.04;93742.34;5101100;28;20239;-67
2021/12/07 03:33:58;;;;;;;0.80;0.80;;;;;;;3.63;98.11;93737.28;5101567;28;20679;-68
2021/12/07 03:36:25;;;;;;;1.98;0.95;;;;;;;3.55;98.00;93744.19;5100013;28;20209;-68
2021/12/07 03:38:53;;;;;;;1.03;0.80;;;;;;;3.54;98.20;93734.19;5100844;28;20285;-68
2021/12/07 03:41:21;;;;;;;1.00;1.00;;;;;;;3.26;99.28;93744.97;5100069;28;20676;-67
2021/12/07 03:43:49;;;;;;;0.90;0.90;;;;;;;3.38;99.47;93748.88;5101377;28;20552;-68
2021/12/07 03:46:18;;;;;;;0.57;0.57;;;;;;;3.41;99.31;93737.06;5099594;28;20619;-68
2021/12/07 03:48:45;;;;;;;0.40;0.40;;;;;;;3.34;98.74;93735.56;5101406;28;20205;-68
2021/12/07 03:51:12;;;;;;;2.60;0.68;;;;;;;3.61;98.36;93738.19;5099167;27;20227;-68
2021/12/07 03:53:39;;;;;;;0.60;0.60;;;;;;;3.51;97.75;93731.75;5099671;28;20201;-68
2021/12/07 03:56:07;;;;;;;2.80;2.60;;;;;;;3.43;98.18;93729.47;5099714;28;20207;-68
2021/12/07 03:58:35;;;;;;;2.22;1.88;;;;;;;3.57;98.01;93731.59;5101263;28;20258;-68
2021/12/07 04:01:05;;;;;;;4.00;3.30;;;;;;;3.54;98.15;93732.50;5099377;28;20201;-68
2021/12/07 04:03:35;;;;;;;2.10;1.90;;;;;;;3.45;97.98;93736.97;5099862;28;20224;-68
2021/12/07 04:06:05;;;;;;;1.00;1.00;;;;;;;3.53;97.75;93732.53;5100911;28;20239;-67
2021/12/07 04:08:34;;;;;;;1.10;0.55;;;;;;;3.31;98.05;93733.13;5100964;28;20815;-68
2021/12/07 04:11:01;;;;;;;0.70;0.70;;;;;;;3.16;98.85;93741.09;5099319;28;20301;-68
2021/12/07 04:13:28;;;;;;;0.77;0.77;;;;;;;3.24;98.49;93739.19;5100898;28;20655;-67
2021/12/07 04:15:57;;;;;;;0.67;0.67;;;;;;;3.13;98.29;93746.19;5101149;28;20655;-67
2021/12/07 04:18:25;;;;;;;0.80;0.80;;;;;;;3.10;98.31;93741.25;5098209;28;20208;-67
2021/12/07 04:20:54;;;;;;;1.63;0.77;;;;;;;3.04;98.91;93743.91;5100093;28;20201;-67
2021/12/07 04:23:21;;;;;;;0.60;0.60;;;;;;;2.98;99.74;93746.56;5098504;28;20249;-67
2021/12/07 04:25:47;;;;;;;0.70;0.70;;;;;;;3.06;98.57;93749.72;5101065;28;20201;-67
2021/12/07 04:28:15;;;;;;;0.63;0.63;;;;;;;3.06;98.43;93739.66;5099204;28;20676;-67
2021/12/07 04:30:45;;;;;;;1.30;0.70;;;;;;;2.99;99.37;93748.22;5100317;28;20260;-67
2021/12/07 04:33:14;;;;;;;0.70;0.70;;;;;;;3.20;98.20;93742.66;5098987;28;20212;-67
2021/12/07 04:35:44;;;;;;;0.70;0.70;;;;;;;3.05;97.80;93745.56;5100444;28;20646;-67
2021/12/07 04:38:13;;;;;;;0.50;0.50;;;;;;;3.20;97.04;93737.63;5099147;28;20237;-67
2021/12/07 04:40:40;;;;;;;0.70;0.70;;;;;;;3.11;96.70;93739.56;5100740;28;20205;-67
2021/12/07 04:43:07;;;;;;;0.70;0.70;;;;;;;3.06;97.33;93734.66;5099044;28;20204;-67
2021/12/07 04:45:47;;;;;;;1.10;0.97;;;;;;;2.93;97.87;93744.19;5098788;28;20296;-67
2021/12/07 04:59:22;;;;;;;1.20;1.20;;;;;;;2.87;97.32;93738.50;5098409;28;20265;-68
2021/12/07 05:01:49;;;;;;;0.80;0.80;;;;;;;2.77;97.08;93742.09;5099646;28;20231;-68
2021/12/07 05:04:20;;;;;;;0.80;0.80;;;;;;;2.84;97.51;93748.59;5097871;28;20185;-68
2021/12/07 05:06:50;;;;;;;1.90;0.80;;;;;;;2.70;97.76;93742.25;5098343;28;20197;-67
2021/12/07 05:09:36;;;;;;;2.60;2.40;;;;;;;2.64;96.81;93746.59;5099232;28;20847;-68
2021/12/07 05:14:47;;;;;;;1.73;1.63;;;;;;;2.67;96.94;93737.31;5067940;28;20231;-67
2021/12/07 05:17:25;;;;;;;0.73;0.73;;;;;;;2.67;96.34;93747.34;5098395;28;20205;-67
2021/12/07 05:38:59;;;;;;;1.67;0.90;;;;;;;2.25;97.78;93744.16;5098638;28;20279;-67
2021/12/07 05:41:27;;;;;;;0.80;0.80;;;;;;;2.22;97.53;93748.44;5097715;28;20246;-69
2021/12/07 05:43:54;;;;;;;12.77;6.97;;;;;;;2.66;100.00;93743.19;5100245;28;20220;-74
2021/12/07 05:46:22;;;;;;;10.47;4.73;;;;;;;2.86;100.00;93741.88;5098652;28;20655;-73
2021/12/07 05:48:49;;;;;;;1.30;0.90;;;;;;;3.03;96.79;93734.72;5100446;28;20328;-66
2021/12/07 05:51:16;;;;;;;0.83;0.80;;;;;;;3.04;94.79;93731.34;5097849;28;20232;-67
2021/12/07 05:53:43;;;;;;;0.90;0.90;;;;;;;2.73;95.31;93732.13;5099007;28;20446;-67
2021/12/07 05:56:10;;;;;;;1.07;0.93;;;;;;;2.65;97.07;93734.03;5098418;28;20208;-66
2021/12/07 05:58:38;;;;;;;0.80;0.80;;;;;;;2.58;96.33;93727.50;5099520;28;20189;-69
2021/12/07 06:01:05;;;;;;;0.90;0.90;;;;;;;2.37;95.90;93733.84;5103427;28;20197;-67
2021/12/07 06:03:32;;;;;;;0.90;0.90;;;;;;;2.49;96.09;93742.75;5103218;28;20201;-67
2021/12/07 06:06:03;;;;;;;1.30;1.20;;;;;;;2.42;95.93;93740.44;5101207;28;20197;-67
2021/12/07 06:08:30;;;;;;;1.60;1.50;;;;;;;2.46;96.43;93737.84;5101176;28;20739;-67
2021/12/07 06:10:58;;;;;;;1.17;1.17;;;;;;;2.45;96.31;93738.69;5102447;28;20205;-67
2021/12/07 06:13:25;;;;;;;1.30;1.20;;;;;;;2.41;96.96;93742.13;5102201;28;20646;-68
2021/12/07 06:15:53;;;;;;;1.27;1.17;;;;;;;2.36;96.89;93736.41;5102921;28;20651;-67
2021/12/07 06:18:20;;;;;;;0.93;0.90;;;;;;;2.28;96.26;93744.09;5102707;28;20209;-67
2021/12/07 06:20:47;;;;;;;1.27;0.97;;;;;;;2.20;97.38;93737.63;5101756;28;21063;-67
2021/12/07 06:23:16;;;;;;;1.00;1.00;;;;;;;2.45;96.72;93741.22;5102671;28;20601;-67
2021/12/07 06:25:44;;;;;;;1.15;1.10;;;;;;;2.44;96.94;93743.75;5100570;28;20862;-68
2021/12/07 06:28:11;;;;;;;1.20;1.10;;;;;;;2.39;97.18;93734.66;5102676;28;20258;-68
2021/12/07 06:30:38;;;;;;;1.13;1.03;;;;;;;2.45;96.62;93741.22;5102685;28;20242;-67
2021/12/07 06:33:06;;;;;;;1.23;1.23;;;;;;;2.38;95.47;93734.69;5101119;28;20289;-68
2021/12/07 06:35:33;;;;;;;0.93;0.93;;;;;;;2.13;96.72;93728.59;5102408;28;20201;-68
2021/12/07 06:38:00;;;;;;;1.10;1.10;;;;;;;2.16;96.87;93741.88;5101953;28;20263;-68
2021/12/07 06:40:26;;;;;;;0.90;0.90;;;;;;;2.23;97.60;93735.03;5102510;28;20197;-67
2021/12/07 06:42:54;;;;;;;1.60;1.50;;;;;;;2.46;95.66;93742.84;5101176;28;20266;-67
2021/12/07 06:45:21;;;;;;;1.00;1.00;;;;;;;2.46;95.87;93739.53;5102229;28;20621;-67
2021/12/07 06:47:48;;;;;;;2.30;1.50;;;;;;;2.52;95.40;93737.66;5102440;28;20197;-68
2021/12/07 06:50:17;;;;;;;1.47;1.37;;;;;;;2.65;95.00;93748.25;5101055;28;20193;-68
2021/12/07 06:52:44;;;;;;;1.20;1.20;;;;;;;2.38;95.19;93745.53;5100501;28;20236;-69
2021/12/07 06:55:11;;;;;;;1.30;1.20;;;;;;;2.48;95.30;93745.28;5102531;28;20205;-67
2021/12/07 06:57:38;;;;;;;1.30;1.30;;;;;;;2.30;94.74;93741.53;5102192;28;20553;-68
2021/12/07 07:00:06;;;;;;;0.97;0.97;;;;;;;2.13;96.05;93748.63;5102066;28;20254;-68
2021/12/07 07:02:33;;;;;;;1.13;1.03;;;;;;;2.10;97.01;93751.19;5100223;28;20209;-67
2021/12/07 07:05:00;;;;;;;1.45;1.10;;;;;;;2.17;96.16;93745.22;5100596;28;20261;-68
2021/12/07 07:07:28;;;;;;;0.97;0.97;;;;;;;2.14;97.37;93745.28;5102217;28;20254;-68
2021/12/07 07:09:55;;;;;;;1.10;1.10;;;;;;;2.25;97.84;93733.31;5100151;28;20688;-68
2021/12/07 07:12:22;;;;;;;1.80;1.30;;;;;;;2.38;96.90;93734.69;5100209;28;20373;-68
2021/12/07 07:14:49;;;;;;;1.30;1.20;;;;;;;2.29;97.44;93745.75;5101085;28;20246;-68
2021/12/07 07:17:16;;;;;;;1.53;1.10;;;;;;;2.35;96.42;93747.28;5101478;28;20234;-70
2021/12/07 07:19:43;;;;;;;2.53;1.27;;;;;;;2.58;97.21;93747.56;5100348;28;20205;-69
2021/12/07 07:22:10;;;;;;;1.40;1.30;;;;;;;2.61;95.73;93744.16;5100791;28;20201;-68
2021/12/07 07:24:39;;;;;;;3.17;1.70;;;;;;;2.67;94.49;93746.53;5101581;28;20288;-68
2021/12/07 07:27:07;;;;;;;1.70;1.57;;;;;;;2.58;95.56;93752.56;5101343;28;20193;-67
2021/12/07 07:29:34;;;;;;;2.37;1.67;;;;;;;2.61;94.39;93750.00;5101417;28;20619;-68
2021/12/07 07:32:00;;;;;;;2.10;1.93;;;;;;;2.49;94.84;93745.25;5099612;28;20714;-68
2021/12/07 07:34:27;;;;;;;0.80;0.80;;;;;;;2.30;95.33;93744.88;5101565;28;20196;-67
2021/12/07 07:36:55;;;;;;;3.03;1.17;;;;;;;2.23;95.59;93745.88;5100590;28;20616;-68
2021/12/07 07:39:22;;;;;;;1.00;1.00;;;;;;;2.21;96.20;93741.78;5101456;28;20229;-66
2021/12/07 07:41:51;;;;;;;1.33;1.23;;;;;;;2.09;96.94;93747.06;5099963;28;20632;-68
2021/12/07 07:44:18;;;;;;;1.27;1.27;;;;;;;1.97;97.24;93746.47;5100670;28;20201;-67
2021/12/07 07:46:45;;;;;;;1.10;1.07;;;;;;;1.74;98.12;93750.31;5100010;28;20208;-69
2021/12/07 07:49:12;;;;;;;1.27;1.13;;;;;;;1.94;98.57;93748.22;5101710;28;20196;-69
2021/12/07 07:51:39;;;;;;;1.43;1.30;;;;;;;1.81;98.99;93752.66;5099918;28;20240;-69
2021/12/07 07:54:06;;;;;;;0.80;0.80;;;;;;;1.78;97.97;93745.19;5099851;28;20271;-68
2021/12/07 07:56:34;;;;;;;1.27;1.17;;;;;;;1.71;99.40;93743.69;5101230;28;20216;-67
2021/12/07 07:59:02;;;;;;;2.03;1.43;;;;;;;1.75;99.72;93740.25;5099695;28;20462;-67
2021/12/07 08:01:31;;;;;;;1.10;1.10;;;;;;;1.88;98.99;93749.16;5100839;28;20185;-69
2021/12/07 08:03:58;;;;;;;1.57;1.40;;;;;;;1.89;98.36;93740.81;5099762;28;20570;-68
2021/12/07 08:06:25;;;;;;;1.40;1.30;;;;;;;1.91;98.31;93744.09;5100883;28;20201;-68
2021/12/07 08:08:52;;;;;;;1.43;1.33;;;;;;;1.78;98.12;93737.69;5099496;28;20266;-69
2021/12/07 08:11:19;;;;;;;1.60;1.50;;;;;;;1.69;99.06;93746.25;5099386;28;20663;-68
2021/12/07 08:13:46;;;;;;;2.60;2.00;;;;;;;1.64;99.93;93749.69;5100517;28;20208;-69
2021/12/07 08:16:16;;;;;;;1.40;1.40;;;;;;;1.72;99.63;93749.53;5100658;28;20643;-69
2021/12/07 08:18:43;;;;;;;1.93;1.30;;;;;;;1.89;99.37;93748.31;5099348;28;20621;-68
2021/12/07 08:21:11;;;;;;;2.33;1.73;;;;;;;1.80;99.13;93755.19;5099754;28;20206;-68
2021/12/07 08:23:38;;;;;;;3.23;1.93;;;;;;;1.82;99.00;93758.50;5097855;28;20262;-67
2021/12/07 08:26:06;;;;;;;4.30;1.63;;;;;;;1.96;97.72;93761.53;5100468;28;20715;-68
2021/12/07 08:28:33;;;;;;;4.80;1.70;;;;;;;1.89;98.55;93765.84;5098709;28;21168;-68
2021/12/07 08:31:01;;;;;;;2.77;2.20;;;;;;;1.95;98.87;93760.72;5100489;28;20208;-69
2021/12/07 08:33:30;;;;;;;1.90;1.80;;;;;;;1.89;98.30;93760.84;5099095;28;20232;-69
2021/12/07 08:35:57;;;;;;;1.40;1.30;;;;;;;1.86;98.36;93768.41;5099179;28;20288;-69
2021/12/07 08:38:25;;;;;;;2.10;1.90;;;;;;;1.99;98.11;93759.75;5100400;28;20233;-69
2021/12/07 08:40:54;;;;;;;1.40;1.30;;;;;;;1.96;99.13;93766.56;5098553;28;20671;-68
2021/12/07 08:43:23;;;;;;;1.73;1.63;;;;;;;2.07;98.67;93768.81;5100167;28;20294;-66
2021/12/07 08:45:50;;;;;;;1.23;1.20;;;;;;;1.99;98.19;93767.28;5098818;28;20235;-67
2021/12/07 08:48:17;;;;;;;1.73;1.63;;;;;;;1.99;98.33;93777.31;5098932;28;20277;-68
2021/12/07 08:50:46;;;;;;;1.43;1.33;;;;;;;1.91;97.48;93774.16;5100153;28;20189;-67
2021/12/07 08:53:16;;;;;;;4.03;2.10;;;;;;;1.84;99.51;93777.63;5099763;28;20220;-67
2021/12/07 09:01:17;;;;;;;1.33;1.23;;;;;;;2.07;97.29;93788.84;5100493;28;20277;-67
2021/12/07 09:03:44;;;;;;;1.03;0.97;;;;;;;1.95;98.62;93793.28;5098331;28;20204;-67
2021/12/07 09:06:13;;;;;;;1.57;1.47;;;;;;;1.95;98.02;93779.94;5100289;28;20196;-67
2021/12/07 09:08:41;;;;;;;1.50;1.40;;;;;;;1.94;97.88;93788.31;5102200;28;20726;-67
2021/12/07 09:11:08;;;;;;;1.30;1.30;;;;;;;2.02;97.06;93787.25;5110904;28;20197;-67
2021/12/07 09:13:35;;;;;;;1.50;1.30;;;;;;;2.06;97.42;93783.00;5110336;28;20719;-67
2021/12/07 09:16:02;;;;;;;1.77;1.67;;;;;;;1.83;97.36;93785.19;5110467;28;20578;-67
2021/12/07 09:18:30;;;;;;;2.07;1.43;;;;;;;1.88;98.42;93789.25;5110442;28;20200;-66
2021/12/07 09:20:57;;;;;;;3.33;1.43;;;;;;;1.95;98.81;93785.75;5110138;28;20630;-67
2021/12/07 09:23:26;;;;;;;3.77;2.00;;;;;;;2.02;98.27;93777.25;5110361;28;20603;-68
2021/12/07 09:25:55;;;;;;;1.93;1.80;;;;;;;1.88;97.84;93769.22;5110464;27;20636;-68
2021/12/07 09:28:22;;;;;;;2.40;1.80;;;;;;;1.91;97.21;93781.69;5110595;28;20242;-67
2021/12/07 09:30:51;;;;;;;2.42;2.22;;;;;;;1.83;97.99;93775.16;5110199;28;20189;-66
2021/12/07 09:33:18;;;;;;;2.20;1.50;;;;;;;1.85;99.32;93769.28;5112832;28;20235;-68
2021/12/07 09:35:46;;;;;;;3.07;1.47;;;;;;;1.85;98.55;93759.25;5114304;28;20189;-65
2021/12/07 09:38:13;;;;;;;1.60;1.30;;;;;;;1.82;98.42;93768.50;5113815;28;20233;-67
2021/12/07 09:40:42;;;;;;;2.00;1.87;;;;;;;1.79;98.77;93771.91;5114176;28;20258;-68
2021/12/07 09:43:09;;;;;;;14.48;2.35;;;;;;;2.18;97.69;93770.22;5114030;28;20224;-67
2021/12/07 09:45:37;;;;;;;4.00;2.43;;;;;;;2.06;97.36;93770.50;5113612;28;20189;-66
2021/12/07 09:48:05;;;;;;;2.77;2.10;;;;;;;2.09;97.58;93762.91;5113900;28;20242;-66
2021/12/07 09:50:34;;;;;;;2.30;2.10;;;;;;;2.21;96.32;93767.66;5114179;28;20370;-67
2021/12/07 09:53:02;;;;;;;2.03;1.80;;;;;;;2.28;95.83;93758.31;5113685;28;20227;-68
2021/12/07 09:55:31;;;;;;;2.83;1.93;;;;;;;2.35;97.03;93757.31;5114214;28;20201;-67
2021/12/07 09:57:59;;;;;;;4.27;1.27;;;;;;;2.33;96.22;93754.00;5113146;28;20193;-68
2021/12/07 10:00:26;;;;;;;1.63;1.53;;;;;;;2.40;96.31;93755.53;5113740;28;20704;-68
2021/12/07 10:02:54;;;;;;;4.10;3.00;;;;;;;2.42;96.61;93755.50;5114037;28;20203;-67
2021/12/07 10:05:23;;;;;;;4.00;2.43;;;;;;;2.37;95.90;93758.09;5113957;28;20265;-68
2021/12/07 10:07:51;;;;;;;2.47;2.20;;;;;;;2.63;95.71;93758.31;5113756;28;20189;-67
2021/12/07 10:10:21;;;;;;;61.10;25.57;;;;;;;2.65;96.05;93769.13;5102914;28;20221;-75
2021/12/07 10:12:48;;;;;;;6.73;4.40;;;;;;;3.44;100.00;93765.47;5102658;28;20225;-75
2021/12/07 10:15:17;;;;;;;4.20;3.80;;;;;;;4.18;98.58;93754.97;5101885;28;20278;-68
2021/12/07 10:17:44;;;;;;;2.00;1.88;;;;;;;4.00;90.49;93759.66;5103086;28;21226;-70
2021/12/07 10:20:31;;;;;;;1.80;1.67;;;;;;;3.68;90.08;93749.72;5102913;28;20201;-67
2021/12/07 10:23:04;;;;;;;1.67;1.58;;;;;;;3.49;90.34;93753.56;5102742;28;20264;-67
2021/12/07 10:25:31;;;;;;;1.90;1.80;;;;;;;3.28;90.05;93753.31;5101826;28;20189;-68
2021/12/07 10:27:58;;;;;;;5.30;1.60;;;;;;;3.19;91.63;93751.06;5102037;28;20193;-68
2021/12/07 10:30:27;;;;;;;1.97;1.53;;;;;;;3.06;91.48;93745.50;5101747;28;20230;-68
2021/12/07 10:33:01;;;;;;;2.73;1.73;;;;;;;3.08;90.92;93737.94;5102354;28;20316;-70
2021/12/07 10:35:30;;;;;;;2.37;1.93;;;;;;;2.83;92.50;93737.75;5101277;28;20205;-68
2021/12/07 10:38:10;;;;;;;3.07;2.53;;;;;;;2.76;92.63;93745.47;5102622;28;20332;-69
2021/12/07 10:40:54;;;;;;;5.17;2.03;;;;;;;2.83;92.88;93741.94;5101220;28;20740;-68
2021/12/07 10:43:53;;;;;;;3.00;2.03;;;;;;;2.93;92.50;93739.19;5102277;28;20648;-68
2021/12/07 10:46:29;;;;;;;2.50;2.03;;;;;;;2.99;92.04;93723.13;5101395;28;20282;-69
2021/12/07 10:49:11;;;;;;;36.87;17.60;;;;;;;2.99;94.16;93735.66;5102637;28;20193;-71
2021/12/07 10:51:38;;;;;;;27.43;15.43;;;;;;;3.35;96.21;93734.72;5100807;28;20190;-67
2021/12/07 10:54:06;;;;;;;1.83;1.73;;;;;;;3.32;90.16;93734.78;5101696;28;21251;-68
2021/12/07 10:56:35;;;;;;;3.17;1.77;;;;;;;3.05;90.67;93738.03;5100878;28;20854;-67
2021/12/07 10:59:03;;;;;;;1.63;1.53;;;;;;;2.66;92.35;93730.66;5102019;28;20200;-67
2021/12/07 11:01:37;;;;;;;2.53;1.67;;;;;;;2.55;92.51;93740.09;5100202;28;20257;-69
2021/12/07 11:04:24;;;;;;;1.60;1.50;;;;;;;2.39;93.26;93736.34;5101713;28;20197;-67
2021/12/07 11:07:07;;;;;;;2.20;2.10;;;;;;;2.36;94.47;93731.38;5099853;28;20201;-67
2021/12/07 11:09:58;;;;;;;4.13;3.60;;;;;;;2.36;93.90;93718.84;5101156;28;20628;-67
2021/12/07 11:12:29;;;;;;;2.13;2.03;;;;;;;2.39;94.43;93714.59;5101510;28;20296;-67
2021/12/07 11:14:59;;;;;;;2.78;1.67;;;;;;;2.32;93.21;93717.28;5100600;28;20209;-67
2021/12/07 11:17:30;;;;;;;2.70;1.57;;;;;;;2.38;94.43;93712.13;5101830;28;20651;-68
2021/12/07 11:20:02;;;;;;;2.47;1.90;;;;;;;2.18;95.80;93710.09;5099298;28;20389;-67
2021/12/07 11:22:33;;;;;;;2.33;1.80;;;;;;;2.15;94.43;93711.84;5101329;28;20189;-67
2021/12/07 11:25:03;;;;;;;1.80;1.70;;;;;;;2.17;94.25;93715.13;5099999;28;20258;-67
2021/12/07 11:30:19;;;;;;;1.40;1.30;;;;;;;2.16;94.16;93714.31;5100976;28;20220;-69
2021/12/07 11:32:55;;;;;;;1.40;1.30;;;;;;;2.00;95.09;93706.28;5101361;28;20285;-69
2021/12/07 11:35:26;;;;;;;1.50;1.40;;;;;;;1.96;96.64;93721.47;5100289;28;20197;-66
2021/12/07 11:37:54;;;;;;;1.67;1.47;;;;;;;2.18;95.54;93719.28;5099788;28;20328;-69
2021/12/07 11:40:25;;;;;;;1.33;1.33;;;;;;;2.09;94.52;93709.47;5099951;28;20635;-68
2021/12/07 11:42:52;;;;;;;1.90;1.80;;;;;;;2.16;95.69;93721.81;5099898;28;20570;-68
2021/12/07 11:45:22;;;;;;;2.00;1.90;;;;;;;2.32;93.89;93714.75;5101551;28;20201;-66
2021/12/07 11:47:53;;;;;;;1.98;1.88;;;;;;;2.42;92.88;93706.19;5100911;28;20205;-69
2021/12/07 11:50:24;;;;;;;1.80;1.63;;;;;;;2.52;93.26;93716.78;5100531;28;20254;-67
2021/12/07 11:52:54;;;;;;;2.03;1.93;;;;;;;2.49;92.96;93717.69;5102035;28;20812;-66
2021/12/07 11:55:22;;;;;;;1.65;1.55;;;;;;;2.55;91.42;93727.56;5101690;28;20212;-67
2021/12/07 11:57:49;;;;;;;1.38;1.38;;;;;;;2.50;91.91;93729.34;5099014;28;20201;-66
2021/12/07 12:00:20;;;;;;;1.50;1.45;;;;;;;2.34;92.60;93723.91;5099699;28;20193;-69
2021/12/07 12:02:47;;;;;;;1.40;1.30;;;;;;;2.29;91.70;93704.81;5100760;28;20205;-66
2021/12/07 12:05:16;;;;;;;1.80;1.70;;;;;;;2.30;92.83;93703.94;5099756;28;20201;-66
2021/12/07 12:07:46;;;;;;;1.37;1.37;;;;;;;2.09;93.03;93712.78;5100408;28;20683;-67
2021/12/07 12:10:14;;;;;;;1.30;1.27;;;;;;;2.17;93.86;93707.63;5099589;28;20217;-67
2021/12/07 12:13:17;;;;;;;1.70;1.67;;;;;;;2.27;92.39;93726.56;5099584;28;20201;-66
2021/12/07 12:16:09;;;;;;;1.57;1.47;;;;;;;2.27;92.31;93726.56;5097385;28;20670;-66
2021/12/07 12:18:49;;;;;;;1.60;1.50;;;;;;;2.57;92.51;93715.00;5098812;28;20670;-66
2021/12/07 12:21:30;;;;;;;2.30;2.10;;;;;;;2.65;92.58;93703.94;5100138;28;20699;-67
2021/12/07 12:24:08;;;;;;;2.10;2.00;;;;;;;2.58;91.73;93712.44;5099124;28;20260;-66
2021/12/07 12:26:37;;;;;;;2.03;1.92;;;;;;;2.64;91.02;93732.38;5100434;28;20264;-67
2021/12/07 12:29:17;;;;;;;2.57;1.50;;;;;;;2.33;92.75;93716.41;5098473;28;20209;-67
2021/12/07 12:31:49;;;;;;;7.80;5.03;;;;;;;2.53;92.06;93711.75;5099178;28;20209;-67
2021/12/07 12:34:18;;;;;;;5.13;4.60;;;;;;;2.46;92.08;93702.75;5098741;28;20256;-67
2021/12/07 12:36:57;;;;;;;1.93;1.83;;;;;;;2.56;91.55;93699.13;5100331;28;20192;-68
2021/12/07 12:39:40;;;;;;;2.13;2.03;;;;;;;2.42;91.26;93703.66;5099102;28;20791;-69
2021/12/07 12:42:07;;;;;;;3.17;2.20;;;;;;;2.34;91.87;93703.84;5099865;28;20632;-67
2021/12/07 12:44:37;;;;;;;2.90;1.80;;;;;;;2.41;92.40;93704.53;5098662;28;20246;-67
2021/12/07 12:47:05;;;;;;;2.10;2.00;;;;;;;2.39;91.60;93714.59;5100063;28;20691;-68
2021/12/07 12:49:40;;;;;;;3.27;2.83;;;;;;;2.36;90.97;93713.84;5100265;28;20724;-67
2021/12/07 12:52:10;;;;;;;2.17;2.07;;;;;;;2.32;91.60;93725.63;5098627;28;20403;-67
2021/12/07 12:54:43;;;;;;;2.10;1.90;;;;;;;2.34;91.78;93723.91;5099063;28;20229;-66
2021/12/07 12:57:14;;;;;;;2.27;2.17;;;;;;;2.30;93.31;93724.00;5099481;28;20197;-66
2021/12/07 12:59:43;;;;;;;2.30;2.20;;;;;;;2.32;91.99;93725.63;5100240;28;20205;-67
2021/12/07 13:02:11;;;;;;;2.97;2.00;;;;;;;2.24;93.02;93729.97;5098847;28;20193;-66
2021/12/07 13:04:41;;;;;;;2.07;1.97;;;;;;;2.16;92.51;93716.81;5098115;28;20593;-66
2021/12/07 13:09:56;;;;;;;2.10;2.00;;;;;;;2.27;91.27;93729.09;5091754;28;20686;-68
2021/12/07 13:12:26;;;;;;;3.00;2.50;;;;;;;2.06;92.46;93722.88;5102418;28;20262;-68
2021/12/07 13:15:00;;;;;;;3.60;2.27;;;;;;;2.04;93.37;93735.44;5102487;28;20235;-67
2021/12/07 13:17:30;;;;;;;2.17;2.07;;;;;;;2.02;92.34;93739.66;5103102;28;20205;-67
2021/12/07 13:20:12;;;;;;;3.13;2.40;;;;;;;2.01;91.77;93729.66;5102750;28;20189;-68
2021/12/07 13:22:44;;;;;;;2.20;2.10;;;;;;;1.89;92.54;93730.78;5103762;28;20201;-66
2021/12/07 17:54:24;;;;;;;7.07;4.67;;;;;;;0.53;97.21;93876.69;5112092;28;20293;-67